Time;durP1;ratioP1;P1;durP2;ratioP2;P2;SDS_P1;SDS_P2;PMS_P1;PMS_P2;Temp;Humidity;BMP_temperature;BMP_pressure;BME280_temperature;BME280_humidity;BME280_pressure;Samples;Min_cycle;Max_cycle;Signal;HPM_P1;HPM_P2
2023/04/03 00:00:12;;;;;;;0.00;0.00;;;;;;;;;;5030263;28;20054;-89
2023/04/03 00:02:40;;;;;;;0.00;0.00;;;;;;;;;;5030681;28;20061;-89
2023/04/03 00:05:06;;;;;;;0.00;0.00;;;;;;;;;;5031073;28;20115;-89
2023/04/03 00:07:32;;;;;;;0.00;0.00;;;;;;;;;;5014724;28;20558;-88
2023/04/03 00:09:58;;;;;;;0.00;0.00;;;;;;;;;;5014576;28;20045;-89
2023/04/03 00:12:24;;;;;;;0.00;0.00;;;;;;;;;;5014460;28;20045;-89
2023/04/03 00:14:50;;;;;;;0.00;0.00;;;;;;;;;;5031194;28;20128;-89
2023/04/03 00:17:16;;;;;;;0.00;0.00;;;;;;;;;;5014635;28;20127;-89
2023/04/03 00:19:42;;;;;;;0.00;0.00;;;;;;;;;;5014445;28;20038;-89
2023/04/03 00:22:08;;;;;;;0.00;0.00;;;;;;;;;;5030948;28;20038;-88
2023/04/03 00:24:34;;;;;;;0.00;0.00;;;;;;;;;;5030580;28;20120;-89
2023/04/03 00:27:00;;;;;;;0.00;0.00;;;;;;;;;;5014357;28;20049;-88
2023/04/03 00:29:26;;;;;;;0.00;0.00;;;;;;;;;;5030866;28;20129;-88
2023/04/03 00:31:52;;;;;;;0.00;0.00;;;;;;;;;;5014334;28;20404;-89
2023/04/03 00:34:19;;;;;;;0.00;0.00;;;;;;;;;;5014085;28;20137;-89
2023/04/03 00:36:45;;;;;;;0.00;0.00;;;;;;;;;;5014407;28;20045;-89
2023/04/03 00:39:11;;;;;;;0.00;0.00;;;;;;;;;;5030915;28;20052;-88
2023/04/03 00:41:37;;;;;;;0.00;0.00;;;;;;;;;;5014754;28;20056;-88
2023/04/03 00:44:19;;;;;;;0.00;0.00;;;;;;;;;;5030700;28;20037;-90
2023/04/03 00:46:45;;;;;;;0.00;0.00;;;;;;;;;;5014381;28;20045;-90
2023/04/03 00:49:11;;;;;;;0.00;0.00;;;;;;;;;;5014157;28;20153;-89
2023/04/03 00:51:37;;;;;;;0.20;0.08;;;;;;;;;;5030501;28;20077;-88
2023/04/03 00:54:05;;;;;;;0.00;0.00;;;;;;;;;;5030383;28;20159;-89
2023/04/03 00:56:31;;;;;;;0.00;0.00;;;;;;;;;;5030596;28;20038;-88
2023/04/03 00:59:00;;;;;;;0.00;0.00;;;;;;;;;;5013922;28;20056;-88
2023/04/03 01:01:27;;;;;;;1.48;0.10;;;;;;;;;;5030113;28;20061;-89
2023/04/03 01:03:53;;;;;;;0.00;0.00;;;;;;;;;;5013701;28;20097;-88
2023/04/03 01:06:23;;;;;;;0.00;0.00;;;;;;;;;;5030916;28;20061;-88
2023/04/03 01:08:50;;;;;;;0.00;0.00;;;;;;;;;;5030612;28;20461;-89
2023/04/03 01:11:16;;;;;;;0.00;0.00;;;;;;;;;;5030619;28;20045;-89
2023/04/03 01:13:42;;;;;;;0.00;0.00;;;;;;;;;;5034143;28;20038;-88
2023/04/03 01:16:08;;;;;;;0.00;0.00;;;;;;;;;;5034105;28;20037;-89
2023/04/03 01:18:36;;;;;;;0.00;0.00;;;;;;;;;;5034045;28;20477;-90
2023/04/03 01:21:17;;;;;;;0.00;0.00;;;;;;;;;;5034288;28;20493;-89
2023/04/03 01:23:43;;;;;;;0.00;0.00;;;;;;;;;;5033702;28;20488;-89
2023/04/03 01:26:11;;;;;;;0.00;0.00;;;;;;;;;;5034143;28;20041;-90
2023/04/03 01:28:37;;;;;;;0.00;0.00;;;;;;;;;;5033686;28;20076;-89
2023/04/03 01:31:03;;;;;;;0.00;0.00;;;;;;;;;;5033708;28;20045;-89
2023/04/03 01:33:30;;;;;;;0.00;0.00;;;;;;;;;;5016962;28;20038;-88
2023/04/03 01:35:55;;;;;;;0.00;0.00;;;;;;;;;;5017236;28;20455;-89
2023/04/03 01:38:21;;;;;;;0.00;0.00;;;;;;;;;;5033686;28;20045;-89
2023/04/03 01:40:47;;;;;;;0.00;0.00;;;;;;;;;;5017152;28;20473;-90
2023/04/03 01:43:13;;;;;;;0.00;0.00;;;;;;;;;;5033587;28;20045;-89
2023/04/03 01:45:39;;;;;;;0.00;0.00;;;;;;;;;;5033545;28;20455;-89
2023/04/03 01:48:06;;;;;;;0.00;0.00;;;;;;;;;;5033291;28;20072;-89
2023/04/03 01:50:32;;;;;;;0.00;0.00;;;;;;;;;;5016952;28;20365;-88
2023/04/03 01:52:58;;;;;;;0.00;0.00;;;;;;;;;;5033201;28;20506;-89
2023/04/03 01:55:24;;;;;;;0.00;0.00;;;;;;;;;;5033221;28;20124;-89
2023/04/03 01:57:50;;;;;;;0.00;0.00;;;;;;;;;;5033212;28;20051;-88
2023/04/03 02:00:16;;;;;;;0.00;0.00;;;;;;;;;;5032693;28;20105;-90
2023/04/03 02:02:42;;;;;;;0.00;0.00;;;;;;;;;;5016768;28;20056;-89
2023/04/03 02:05:08;;;;;;;0.00;0.00;;;;;;;;;;5032796;28;20077;-90
2023/04/03 02:07:34;;;;;;;0.00;0.00;;;;;;;;;;5033136;28;20050;-89
2023/04/03 02:10:00;;;;;;;0.00;0.00;;;;;;;;;;5032879;28;20068;-89
2023/04/03 02:12:26;;;;;;;0.00;0.00;;;;;;;;;;5032786;28;20465;-89
2023/04/03 02:14:52;;;;;;;0.00;0.00;;;;;;;;;;5016421;28;20473;-90
2023/04/03 02:17:18;;;;;;;0.00;0.00;;;;;;;;;;5032805;28;20045;-89
2023/04/03 02:19:44;;;;;;;0.00;0.00;;;;;;;;;;5032974;28;20041;-89
2023/04/03 02:22:10;;;;;;;0.00;0.00;;;;;;;;;;5016200;28;20473;-89
2023/04/03 02:24:38;;;;;;;0.00;0.00;;;;;;;;;;5015391;28;20072;-89
2023/04/03 02:27:04;;;;;;;0.00;0.00;;;;;;;;;;5032745;28;20045;-88
2023/04/03 02:29:30;;;;;;;0.00;0.00;;;;;;;;;;5032302;28;20041;-89
2023/04/03 02:31:56;;;;;;;0.00;0.00;;;;;;;;;;5016149;28;20045;-89
2023/04/03 02:34:22;;;;;;;0.00;0.00;;;;;;;;;;5015832;28;20128;-89
2023/04/03 02:36:48;;;;;;;0.00;0.00;;;;;;;;;;5032456;28;20099;-89
2023/04/03 02:39:14;;;;;;;0.00;0.00;;;;;;;;;;5015818;28;20046;-89
2023/04/03 02:41:40;;;;;;;0.00;0.00;;;;;;;;;;5015868;28;20469;-89
2023/04/03 02:44:07;;;;;;;0.00;0.00;;;;;;;;;;5015638;28;20051;-88
2023/04/03 02:46:33;;;;;;;0.00;0.00;;;;;;;;;;5015862;28;20049;-89
2023/04/03 02:48:59;;;;;;;0.00;0.00;;;;;;;;;;5032399;28;20133;-90
2023/04/03 02:51:25;;;;;;;0.00;0.00;;;;;;;;;;5032456;28;20049;-89
2023/04/03 02:53:51;;;;;;;0.00;0.00;;;;;;;;;;5032059;28;20038;-89
2023/04/03 02:56:19;;;;;;;0.00;0.00;;;;;;;;;;5032286;28;20041;-90
2023/04/03 02:58:45;;;;;;;0.00;0.00;;;;;;;;;;5015850;28;20041;-89
2023/04/03 03:01:11;;;;;;;0.00;0.00;;;;;;;;;;5015857;28;20080;-89
2023/04/03 03:03:37;;;;;;;0.00;0.00;;;;;;;;;;5032085;28;20045;-89
2023/04/03 03:06:03;;;;;;;0.00;0.00;;;;;;;;;;5015424;28;20048;-89
2023/04/03 03:08:30;;;;;;;0.00;0.00;;;;;;;;;;5032356;28;20041;-89
2023/04/03 03:10:56;;;;;;;0.00;0.00;;;;;;;;;;5015530;28;20052;-88
2023/04/03 03:13:21;;;;;;;0.00;0.00;;;;;;;;;;5015374;28;20485;-89
2023/04/03 03:15:47;;;;;;;0.00;0.00;;;;;;;;;;5032115;28;20041;-89
2023/04/03 03:18:13;;;;;;;0.00;0.00;;;;;;;;;;5032125;28;20044;-89
2023/04/03 03:20:39;;;;;;;0.00;0.00;;;;;;;;;;5032213;28;20119;-89
2023/04/03 03:23:05;;;;;;;0.00;0.00;;;;;;;;;;5031909;28;20052;-89
2023/04/03 03:25:31;;;;;;;0.00;0.00;;;;;;;;;;5031800;28;20373;-88
2023/04/03 03:27:57;;;;;;;0.00;0.00;;;;;;;;;;5031979;28;20033;-89
2023/04/03 03:30:23;;;;;;;0.00;0.00;;;;;;;;;;5015292;28;20040;-89
2023/04/03 03:32:49;;;;;;;0.00;0.00;;;;;;;;;;5031634;28;20037;-89
2023/04/03 03:35:15;;;;;;;0.00;0.00;;;;;;;;;;5015083;28;20076;-89
2023/04/03 03:37:41;;;;;;;0.00;0.00;;;;;;;;;;5031850;28;20047;-90
2023/04/03 03:40:07;;;;;;;0.00;0.00;;;;;;;;;;5015283;28;20471;-90
2023/04/03 03:42:34;;;;;;;0.00;0.00;;;;;;;;;;5031551;28;20047;-89
2023/04/03 03:45:00;;;;;;;0.00;0.00;;;;;;;;;;5031489;28;20047;-88
2023/04/03 03:47:26;;;;;;;0.00;0.00;;;;;;;;;;5032009;28;20037;-90
2023/04/03 03:49:52;;;;;;;0.00;0.00;;;;;;;;;;5032192;28;20107;-89
2023/04/03 03:52:18;;;;;;;0.00;0.00;;;;;;;;;;5016198;28;20045;-90
2023/04/03 03:54:44;;;;;;;0.00;0.00;;;;;;;;;;5032292;28;20503;-89
2023/04/03 03:57:10;;;;;;;0.00;0.00;;;;;;;;;;5031761;28;20049;-90
2023/04/03 03:59:36;;;;;;;0.00;0.00;;;;;;;;;;5031562;28;20095;-89
2023/04/03 04:02:02;;;;;;;0.00;0.00;;;;;;;;;;5014839;28;20060;-91
2023/04/03 04:04:28;;;;;;;0.00;0.00;;;;;;;;;;5031819;28;20091;-90
2023/04/03 04:06:54;;;;;;;0.00;0.00;;;;;;;;;;5014949;28;20086;-90
2023/04/03 04:09:21;;;;;;;0.00;0.00;;;;;;;;;;5031592;28;20046;-89
2023/04/03 04:11:47;;;;;;;0.00;0.00;;;;;;;;;;5031603;28;20057;-90
2023/04/03 04:14:13;;;;;;;0.00;0.00;;;;;;;;;;5014972;28;20072;-90
2023/04/03 04:16:39;;;;;;;0.00;0.00;;;;;;;;;;5031292;28;20037;-91
2023/04/03 04:19:05;;;;;;;0.00;0.00;;;;;;;;;;5031965;28;20576;-90
2023/04/03 04:21:31;;;;;;;0.00;0.00;;;;;;;;;;5014856;28;20069;-89
2023/04/03 04:23:57;;;;;;;0.00;0.00;;;;;;;;;;5014938;28;20106;-89
2023/04/03 04:26:24;;;;;;;0.00;0.00;;;;;;;;;;5014841;28;20096;-90
2023/04/03 04:28:50;;;;;;;0.00;0.00;;;;;;;;;;5031806;28;20444;-89
2023/04/03 04:31:15;;;;;;;0.00;0.00;;;;;;;;;;5031030;28;20041;-90
2023/04/03 04:33:41;;;;;;;0.00;0.00;;;;;;;;;;5031333;28;20038;-89
2023/04/03 04:36:07;;;;;;;0.00;0.00;;;;;;;;;;5014605;28;20460;-91
2023/04/03 04:38:33;;;;;;;0.00;0.00;;;;;;;;;;5031644;28;20045;-89
2023/04/03 04:40:59;;;;;;;0.00;0.00;;;;;;;;;;5014484;28;20144;-90
2023/04/03 04:43:26;;;;;;;0.00;0.00;;;;;;;;;;5031251;28;20053;-91
2023/04/03 04:46:00;;;;;;;0.00;0.00;;;;;;;;;;5031079;28;20046;-90
2023/04/03 04:48:26;;;;;;;0.00;0.00;;;;;;;;;;5035912;28;20041;-89
2023/04/03 04:50:52;;;;;;;0.00;0.00;;;;;;;;;;5019526;28;20059;-90
2023/04/03 04:53:19;;;;;;;0.00;0.00;;;;;;;;;;5018344;28;20400;-89
2023/04/03 04:55:45;;;;;;;0.00;0.00;;;;;;;;;;5034666;28;20481;-89
2023/04/03 04:58:10;;;;;;;0.00;0.00;;;;;;;;;;5034676;28;20052;-89
2023/04/03 05:00:36;;;;;;;0.00;0.00;;;;;;;;;;5017735;28;20409;-89
2023/04/03 05:03:02;;;;;;;0.00;0.00;;;;;;;;;;5018172;28;20132;-91
2023/04/03 05:05:28;;;;;;;0.00;0.00;;;;;;;;;;5018472;28;20057;-90
2023/04/03 05:07:54;;;;;;;0.00;0.00;;;;;;;;;;5018021;28;20493;-90
2023/04/03 05:10:20;;;;;;;0.00;0.00;;;;;;;;;;5017604;28;20041;-90
2023/04/03 05:12:46;;;;;;;0.00;0.00;;;;;;;;;;5034127;28;20041;-91
2023/04/03 05:15:12;;;;;;;0.00;0.00;;;;;;;;;;5034228;28;20037;-89
2023/04/03 05:17:38;;;;;;;0.00;0.00;;;;;;;;;;5034206;28;20038;-89
2023/04/03 05:20:05;;;;;;;0.00;0.00;;;;;;;;;;5017602;28;20064;-90
2023/04/03 05:22:31;;;;;;;0.00;0.00;;;;;;;;;;5034100;28;20705;-89
2023/04/03 05:24:57;;;;;;;0.00;0.00;;;;;;;;;;5017523;28;20037;-89
2023/04/03 05:27:24;;;;;;;0.00;0.00;;;;;;;;;;5017506;28;20041;-89
2023/04/03 05:29:50;;;;;;;0.00;0.00;;;;;;;;;;5034370;28;20037;-89
2023/04/03 05:32:16;;;;;;;0.00;0.00;;;;;;;;;;5033588;28;20045;-89
2023/04/03 05:34:42;;;;;;;0.00;0.00;;;;;;;;;;5033984;28;20183;-89
2023/04/03 05:37:08;;;;;;;0.20;0.20;;;;;;;;;;5033599;28;20099;-88
2023/04/03 05:39:35;;;;;;;0.00;0.00;;;;;;;;;;5033942;28;20158;-90
2023/04/03 05:42:00;;;;;;;0.00;0.00;;;;;;;;;;5017070;28;20037;-90
2023/04/03 05:44:26;;;;;;;0.00;0.00;;;;;;;;;;5034045;28;20128;-88
2023/04/03 05:46:52;;;;;;;0.00;0.00;;;;;;;;;;5033460;28;20076;-90
2023/04/03 05:49:18;;;;;;;0.00;0.00;;;;;;;;;;5033841;28;20049;-90
2023/04/03 05:51:45;;;;;;;0.00;0.00;;;;;;;;;;5033473;28;20384;-89
2023/04/03 05:54:19;;;;;;;0.00;0.00;;;;;;;;;;5033593;28;20048;-89
2023/04/03 05:56:45;;;;;;;0.00;0.00;;;;;;;;;;5030473;28;20040;-89
2023/04/03 05:59:11;;;;;;;0.00;0.00;;;;;;;;;;5015859;28;20128;-89
2023/04/03 06:01:37;;;;;;;0.00;0.00;;;;;;;;;;5016456;28;20054;-90
2023/04/03 06:04:03;;;;;;;0.00;0.00;;;;;;;;;;5033345;28;20049;-90
2023/04/03 06:06:45;;;;;;;0.00;0.00;;;;;;;;;;5033348;28;20090;-90
2023/04/03 06:09:11;;;;;;;0.00;0.00;;;;;;;;;;5033391;28;20052;-90
2023/04/03 06:11:37;;;;;;;0.00;0.00;;;;;;;;;;5033163;28;20128;-89
2023/04/03 06:14:03;;;;;;;0.00;0.00;;;;;;;;;;5033236;28;20054;-90
2023/04/03 06:16:29;;;;;;;0.05;0.00;;;;;;;;;;5033458;28;20054;-90
2023/04/03 06:18:55;;;;;;;0.00;0.00;;;;;;;;;;5033500;28;20085;-92
2023/04/03 06:21:21;;;;;;;0.63;0.15;;;;;;;;;;5017216;28;20042;-90
2023/04/03 06:23:47;;;;;;;0.00;0.00;;;;;;;;;;5016749;28;20139;-90
2023/04/03 06:26:13;;;;;;;0.00;0.00;;;;;;;;;;5032987;28;20045;-90
2023/04/03 06:28:39;;;;;;;0.00;0.00;;;;;;;;;;5033362;28;20134;-91
2023/04/03 06:31:05;;;;;;;0.00;0.00;;;;;;;;;;5033027;28;20057;-90
2023/04/03 06:33:31;;;;;;;0.00;0.00;;;;;;;;;;5032843;28;20053;-91
2023/04/03 06:35:58;;;;;;;0.00;0.00;;;;;;;;;;5016431;28;20045;-91
2023/04/03 06:38:24;;;;;;;0.00;0.00;;;;;;;;;;5016401;28;20044;-90
2023/04/03 06:40:51;;;;;;;0.00;0.00;;;;;;;;;;5033469;28;20167;-91
2023/04/03 06:43:17;;;;;;;0.00;0.00;;;;;;;;;;5016428;28;20060;-91
2023/04/03 06:45:43;;;;;;;0.00;0.00;;;;;;;;;;5032990;28;20041;-92
2023/04/03 06:48:09;;;;;;;0.00;0.00;;;;;;;;;;5016389;28;20405;-91
2023/04/03 06:50:35;;;;;;;0.00;0.00;;;;;;;;;;5016916;28;20386;-90
2023/04/03 06:53:02;;;;;;;0.00;0.00;;;;;;;;;;5015705;28;20048;-91
2023/04/03 06:55:28;;;;;;;0.05;0.00;;;;;;;;;;5032609;28;20042;-90
2023/04/03 06:57:54;;;;;;;0.00;0.00;;;;;;;;;;5016048;28;20034;-90
2023/04/03 07:00:20;;;;;;;0.00;0.00;;;;;;;;;;5015607;28;20111;-90
2023/04/03 07:02:47;;;;;;;0.00;0.00;;;;;;;;;;5016393;28;20049;-89
2023/04/03 07:05:13;;;;;;;0.00;0.00;;;;;;;;;;5016157;28;20045;-90
2023/04/03 07:07:39;;;;;;;0.15;0.08;;;;;;;;;;5032752;28;20049;-93
2023/04/03 07:10:06;;;;;;;0.00;0.00;;;;;;;;;;5016296;28;20049;-91
2023/04/03 07:12:32;;;;;;;0.00;0.00;;;;;;;;;;5015911;28;20554;-93
2023/04/03 07:14:58;;;;;;;0.20;0.13;;;;;;;;;;5016190;28;20038;-90
2023/04/03 07:17:25;;;;;;;0.00;0.00;;;;;;;;;;5031972;28;20068;-90
2023/04/03 07:19:51;;;;;;;0.00;0.00;;;;;;;;;;5032937;28;20038;-94
2023/04/03 07:22:20;;;;;;;0.00;0.00;;;;;;;;;;5017224;28;20117;-93
2023/04/03 07:24:46;;;;;;;0.00;0.00;;;;;;;;;;5016313;28;20045;-91
2023/04/03 07:27:12;;;;;;;0.00;0.00;;;;;;;;;;5016021;28;20046;-92
2023/04/03 07:29:38;;;;;;;0.00;0.00;;;;;;;;;;5016099;28;20046;-92
2023/04/03 07:32:05;;;;;;;0.00;0.00;;;;;;;;;;5015600;28;20338;-92
2023/04/03 07:34:32;;;;;;;0.00;0.00;;;;;;;;;;5032218;28;20064;-93
2023/04/03 07:36:58;;;;;;;0.00;0.00;;;;;;;;;;5015822;28;20049;-91
2023/04/03 07:39:25;;;;;;;0.00;0.00;;;;;;;;;;5015821;28;20037;-91
2023/04/03 07:41:51;;;;;;;0.00;0.00;;;;;;;;;;5015406;28;20452;-91
2023/04/03 07:44:17;;;;;;;0.00;0.00;;;;;;;;;;5031836;28;20507;-91
2023/04/03 07:46:43;;;;;;;0.00;0.00;;;;;;;;;;5031968;28;20084;-91
2023/04/03 07:49:20;;;;;;;0.00;0.00;;;;;;;;;;5032228;28;20077;-94
2023/04/03 07:51:46;;;;;;;0.00;0.00;;;;;;;;;;5016472;28;20046;-93
2023/04/03 07:54:12;;;;;;;0.00;0.00;;;;;;;;;;5015251;28;20071;-91
2023/04/03 07:56:38;;;;;;;0.00;0.00;;;;;;;;;;5015222;28;20102;-91
2023/04/03 07:59:04;;;;;;;0.00;0.00;;;;;;;;;;5015510;28;20040;-90
2023/04/03 08:01:33;;;;;;;0.00;0.00;;;;;;;;;;5015208;28;20060;-89
2023/04/03 08:03:59;;;;;;;0.00;0.00;;;;;;;;;;5015132;28;20128;-90
2023/04/03 08:06:25;;;;;;;0.00;0.00;;;;;;;;;;5015451;28;20045;-90
2023/04/03 08:08:51;;;;;;;0.00;0.00;;;;;;;;;;5014784;28;20060;-90
2023/04/03 08:11:18;;;;;;;0.00;0.00;;;;;;;;;;5014910;28;20037;-89
2023/04/03 08:13:44;;;;;;;0.00;0.00;;;;;;;;;;5031240;28;20323;-89
2023/04/03 08:16:17;;;;;;;0.00;0.00;;;;;;;;;;5031880;28;20041;-90
2023/04/03 08:18:43;;;;;;;0.00;0.00;;;;;;;;;;5014819;28;20048;-89
2023/04/03 08:21:10;;;;;;;0.00;0.00;;;;;;;;;;5014812;28;20038;-89
2023/04/03 08:23:36;;;;;;;0.00;0.00;;;;;;;;;;5018155;28;20107;-88
2023/04/03 08:26:07;;;;;;;0.00;0.00;;;;;;;;;;5018930;28;20128;-91
2023/04/03 08:28:33;;;;;;;0.00;0.00;;;;;;;;;;5034903;28;20045;-89
2023/04/03 08:31:03;;;;;;;0.00;0.00;;;;;;;;;;5035070;28;20508;-89
2023/04/03 08:33:29;;;;;;;0.00;0.00;;;;;;;;;;5019162;28;20037;-89
2023/04/03 08:35:55;;;;;;;0.00;0.00;;;;;;;;;;5035071;28;20116;-93
2023/04/03 08:38:21;;;;;;;0.00;0.00;;;;;;;;;;5018444;28;20444;-92
2023/04/03 08:40:47;;;;;;;0.00;0.00;;;;;;;;;;5034983;28;20150;-89
2023/04/03 08:43:36;;;;;;;0.00;0.00;;;;;;;;;;5034728;28;20041;-89
2023/04/03 08:46:05;;;;;;;0.00;0.00;;;;;;;;;;5034937;28;20041;-89
2023/04/03 08:48:33;;;;;;;0.00;0.00;;;;;;;;;;5034420;28;20134;-89
2023/04/03 08:51:01;;;;;;;0.00;0.00;;;;;;;;;;5018139;28;20095;-89
2023/04/03 08:53:31;;;;;;;0.00;0.00;;;;;;;;;;5017690;28;20091;-89
2023/04/03 08:55:57;;;;;;;0.00;0.00;;;;;;;;;;5018026;28;20037;-88
2023/04/03 08:58:29;;;;;;;0.00;0.00;;;;;;;;;;5018013;28;20418;-88
2023/04/03 09:00:59;;;;;;;0.10;0.05;;;;;;;;;;5017950;28;20103;-89
2023/04/03 09:03:25;;;;;;;0.00;0.00;;;;;;;;;;5034022;28;20049;-89
2023/04/03 09:05:54;;;;;;;0.00;0.00;;;;;;;;;;5034337;28;20076;-89
2023/04/03 09:08:26;;;;;;;0.00;0.00;;;;;;;;;;5034222;28;20044;-90
2023/04/03 09:11:28;;;;;;;0.00;0.00;;;;;;;;;;5034276;28;20087;-88
2023/04/03 09:13:58;;;;;;;0.00;0.00;;;;;;;;;;4961612;28;20199;-89
2023/04/03 09:16:39;;;;;;;0.00;0.00;;;;;;;;;;5007256;28;20055;-88
2023/04/03 09:19:20;;;;;;;0.00;0.00;;;;;;;;;;5034314;28;20046;-89
2023/04/03 09:21:46;;;;;;;0.00;0.00;;;;;;;;;;5034598;28;20455;-89
2023/04/03 09:24:15;;;;;;;0.00;0.00;;;;;;;;;;5017123;28;20133;-88
2023/04/03 09:27:02;;;;;;;0.00;0.00;;;;;;;;;;5034315;28;20049;-88
2023/04/03 09:29:30;;;;;;;0.00;0.00;;;;;;;;;;5034007;28;20448;-89
2023/04/03 09:31:58;;;;;;;0.00;0.00;;;;;;;;;;5017425;28;20049;-88
2023/04/03 09:34:36;;;;;;;0.00;0.00;;;;;;;;;;5033468;28;20401;-87
2023/04/03 09:37:06;;;;;;;0.00;0.00;;;;;;;;;;5018534;28;20335;-88
2023/04/03 09:39:49;;;;;;;0.00;0.00;;;;;;;;;;5034545;28;20511;-88
2023/04/03 09:42:19;;;;;;;0.00;0.00;;;;;;;;;;5018641;28;20056;-88
2023/04/03 09:44:56;;;;;;;0.00;0.00;;;;;;;;;;5017059;28;20049;-88
2023/04/03 09:47:28;;;;;;;0.00;0.00;;;;;;;;;;5017286;28;20041;-88
2023/04/03 09:50:19;;;;;;;0.00;0.00;;;;;;;;;;5033268;28;20042;-89
2023/04/03 09:52:46;;;;;;;0.00;0.00;;;;;;;;;;5017322;28;20051;-87
2023/04/03 09:55:16;;;;;;;0.00;0.00;;;;;;;;;;5033305;28;20038;-88
2023/04/03 09:57:43;;;;;;;0.00;0.00;;;;;;;;;;5033428;28;20151;-88
2023/04/03 10:00:32;;;;;;;0.00;0.00;;;;;;;;;;5014282;28;20029;-88
2023/04/03 10:02:58;;;;;;;0.00;0.00;;;;;;;;;;4968656;28;20050;-87
2023/04/03 10:05:45;;;;;;;0.00;0.00;;;;;;;;;;4996897;28;20136;-87
2023/04/03 10:08:14;;;;;;;0.00;0.00;;;;;;;;;;4997072;28;20133;-88
2023/04/03 10:10:45;;;;;;;1.25;1.08;;;;;;;;;;4981016;28;20402;-88
2023/04/03 10:13:12;;;;;;;0.00;0.00;;;;;;;;;;4996780;28;20049;-87
2023/04/03 10:15:46;;;;;;;0.00;0.00;;;;;;;;;;4996817;28;20038;-87
2023/04/03 10:18:25;;;;;;;3.20;0.10;;;;;;;;;;4996876;28;20494;-88
2023/04/03 10:20:53;;;;;;;0.00;0.00;;;;;;;;;;4996958;28;20120;-87
2023/04/03 10:23:22;;;;;;;0.00;0.00;;;;;;;;;;4996954;28;20437;-88
2023/04/03 10:25:55;;;;;;;0.00;0.00;;;;;;;;;;4980314;28;20076;-88
2023/04/03 10:28:30;;;;;;;0.00;0.00;;;;;;;;;;4996802;28;20046;-88
2023/04/03 10:31:02;;;;;;;0.00;0.00;;;;;;;;;;4996487;28;20080;-88
2023/04/03 10:33:28;;;;;;;0.00;0.00;;;;;;;;;;4980523;28;20050;-88
2023/04/03 10:36:11;;;;;;;0.00;0.00;;;;;;;;;;4996762;28;20157;-88
2023/04/03 10:38:48;;;;;;;0.00;0.00;;;;;;;;;;4980134;28;20042;-88
2023/04/03 10:41:14;;;;;;;0.00;0.00;;;;;;;;;;4980070;28;20041;-88
2023/04/03 10:43:50;;;;;;;0.00;0.00;;;;;;;;;;4996001;28;20103;-88
2023/04/03 10:46:24;;;;;;;0.00;0.00;;;;;;;;;;4996168;28;20061;-87
2023/04/03 10:48:57;;;;;;;0.00;0.00;;;;;;;;;;4996704;28;20136;-88
2023/04/03 10:51:39;;;;;;;2.78;0.30;;;;;;;;;;4979923;28;20467;-87
2023/04/03 10:54:13;;;;;;;0.00;0.00;;;;;;;;;;4979546;28;20489;-88
2023/04/03 10:56:44;;;;;;;0.00;0.00;;;;;;;;;;4995929;28;20040;-87
2023/04/03 10:59:25;;;;;;;0.00;0.00;;;;;;;;;;4995659;28;20045;-87
2023/04/03 11:01:56;;;;;;;0.00;0.00;;;;;;;;;;5025434;28;20049;-87
2023/04/03 11:04:24;;;;;;;0.00;0.00;;;;;;;;;;5031972;28;20052;-87
2023/04/03 11:06:53;;;;;;;0.00;0.00;;;;;;;;;;5031903;28;20037;-86
2023/04/03 11:09:22;;;;;;;0.00;0.00;;;;;;;;;;5031643;28;20489;-87
2023/04/03 11:11:50;;;;;;;0.00;0.00;;;;;;;;;;5032369;28;20389;-86
2023/04/03 11:14:29;;;;;;;0.00;0.00;;;;;;;;;;5031525;28;20049;-87
2023/04/03 11:17:02;;;;;;;0.00;0.00;;;;;;;;;;5031793;28;20037;-87
2023/04/03 11:19:36;;;;;;;0.00;0.00;;;;;;;;;;5015176;28;20044;-86
2023/04/03 11:22:21;;;;;;;0.00;0.00;;;;;;;;;;5031367;28;20044;-87
2023/04/03 11:24:52;;;;;;;0.00;0.00;;;;;;;;;;5014690;28;20045;-86
2023/04/03 11:27:22;;;;;;;0.00;0.00;;;;;;;;;;5015231;28;20045;-86
2023/04/03 11:29:50;;;;;;;0.00;0.00;;;;;;;;;;5031496;28;20440;-87
2023/04/03 11:32:36;;;;;;;0.00;0.00;;;;;;;;;;5031657;28;20049;-86
2023/04/03 11:35:02;;;;;;;;;;;;;;;;;;5015461;28;20107;-87
2023/04/03 11:37:29;;;;;;;0.00;0.00;;;;;;;;;;5015042;28;20319;-87
2023/04/03 11:39:57;;;;;;;0.00;0.00;;;;;;;;;;5014462;28;20488;-88
2023/04/03 11:42:35;;;;;;;0.00;0.00;;;;;;;;;;5031454;28;20140;-87
2023/04/03 11:45:26;;;;;;;0.00;0.00;;;;;;;;;;5014804;28;20175;-87
2023/04/03 11:48:00;;;;;;;0.10;0.10;;;;;;;;;;5014573;28;20132;-87
2023/04/03 11:50:32;;;;;;;0.00;0.00;;;;;;;;;;5014487;28;20056;-87
2023/04/03 11:52:59;;;;;;;0.00;0.00;;;;;;;;;;5031289;28;20099;-87
2023/04/03 11:55:31;;;;;;;0.00;0.00;;;;;;;;;;5030936;28;20099;-86
2023/04/03 11:57:57;;;;;;;0.00;0.00;;;;;;;;;;5015049;28;20362;-87
2023/04/03 12:00:42;;;;;;;0.00;0.00;;;;;;;;;;5030601;28;20118;-87
2023/04/03 12:03:26;;;;;;;0.00;0.00;;;;;;;;;;5014373;28;20416;-86
2023/04/03 12:06:13;;;;;;;0.05;0.00;;;;;;;;;;5014282;28;20049;-87
2023/04/03 12:08:42;;;;;;;0.00;0.00;;;;;;;;;;5014574;28;20052;-87
2023/04/03 12:11:11;;;;;;;0.00;0.00;;;;;;;;;;5030636;28;20076;-87
2023/04/03 12:13:37;;;;;;;0.00;0.00;;;;;;;;;;5030967;28;20045;-87
2023/04/03 12:16:04;;;;;;;0.00;0.00;;;;;;;;;;5014499;28;20037;-87
2023/04/03 12:18:49;;;;;;;0.00;0.00;;;;;;;;;;5014476;28;20187;-87
2023/04/03 12:21:18;;;;;;;0.00;0.00;;;;;;;;;;5014231;28;20473;-87
2023/04/03 12:24:03;;;;;;;0.00;0.00;;;;;;;;;;5014785;28;20048;-88
2023/04/03 12:26:39;;;;;;;0.00;0.00;;;;;;;;;;5032713;28;20461;-88
2023/04/03 12:29:21;;;;;;;0.00;0.00;;;;;;;;;;5031360;28;20053;-87
2023/04/03 12:31:53;;;;;;;0.00;0.00;;;;;;;;;;5030874;28;20037;-88
2023/04/03 12:34:27;;;;;;;0.00;0.00;;;;;;;;;;5030600;28;20049;-88
2023/04/03 12:37:00;;;;;;;5.13;0.25;;;;;;;;;;5014238;28;20048;-87
2023/04/03 12:39:41;;;;;;;0.00;0.00;;;;;;;;;;5014601;28;20125;-88
2023/04/03 12:42:07;;;;;;;0.00;0.00;;;;;;;;;;5030387;28;20041;-88
2023/04/03 12:44:56;;;;;;;0.00;0.00;;;;;;;;;;5030623;28;20144;-87
2023/04/03 12:47:32;;;;;;;0.00;0.00;;;;;;;;;;4974284;28;20131;-88
2023/04/03 12:50:00;;;;;;;0.00;0.00;;;;;;;;;;5011123;28;20049;-87
2023/04/03 12:52:32;;;;;;;0.00;0.00;;;;;;;;;;5013834;28;20045;-88
2023/04/03 12:55:00;;;;;;;0.47;0.08;;;;;;;;;;5030082;28;20128;-87
2023/04/03 12:57:30;;;;;;;0.00;0.00;;;;;;;;;;5013962;28;20048;-89
2023/04/03 12:59:56;;;;;;;0.00;0.00;;;;;;;;;;5013230;28;20041;-88
2023/04/03 13:02:23;;;;;;;0.00;0.00;;;;;;;;;;4994281;28;20057;-88
2023/04/03 13:04:50;;;;;;;0.00;0.00;;;;;;;;;;4994571;28;20052;-87
2023/04/03 13:07:19;;;;;;;0.00;0.00;;;;;;;;;;4994665;28;20045;-88
2023/04/03 13:09:55;;;;;;;0.00;0.00;;;;;;;;;;4997917;28;20045;-88
2023/04/03 13:12:21;;;;;;;;;;;;;;;;;;4982150;28;20056;-87
2023/04/03 13:14:59;;;;;;;0.00;0.00;;;;;;;;;;4981524;28;20052;-89
2023/04/03 13:17:25;;;;;;;0.00;0.00;;;;;;;;;;4997532;28;20061;-88
2023/04/03 13:19:51;;;;;;;0.00;0.00;;;;;;;;;;4981490;28;20040;-87
2023/04/03 13:22:24;;;;;;;0.00;0.00;;;;;;;;;;4997817;28;20042;-87
2023/04/03 13:24:51;;;;;;;0.00;0.00;;;;;;;;;;4998135;28;20042;-87
2023/04/03 13:27:17;;;;;;;0.00;0.00;;;;;;;;;;4981362;28;20068;-88
2023/04/03 13:29:44;;;;;;;0.00;0.00;;;;;;;;;;4981612;28;20048;-87
2023/04/03 13:32:20;;;;;;;0.00;0.00;;;;;;;;;;4980889;28;20052;-87
2023/04/03 13:34:46;;;;;;;0.00;0.00;;;;;;;;;;4997201;28;20401;-88
2023/04/03 13:37:23;;;;;;;0.00;0.00;;;;;;;;;;4997287;28;20100;-87
2023/04/03 13:39:57;;;;;;;0.00;0.00;;;;;;;;;;4997502;28;20044;-87
2023/04/03 13:42:26;;;;;;;0.00;0.00;;;;;;;;;;4996849;28;20038;-87
2023/04/03 13:45:12;;;;;;;0.00;0.00;;;;;;;;;;4980868;28;20043;-88
2023/04/03 13:47:40;;;;;;;0.00;0.00;;;;;;;;;;4980710;28;20112;-88
2023/04/03 13:50:12;;;;;;;0.00;0.00;;;;;;;;;;4997471;28;20049;-87
2023/04/03 13:52:53;;;;;;;0.00;0.00;;;;;;;;;;4996854;28;20065;-88
2023/04/03 13:55:19;;;;;;;0.00;0.00;;;;;;;;;;4996855;28;20121;-88
2023/04/03 13:57:52;;;;;;;0.00;0.00;;;;;;;;;;4996774;28;20041;-87
2023/04/03 14:00:28;;;;;;;0.00;0.00;;;;;;;;;;5001319;28;20068;-88
2023/04/03 14:02:56;;;;;;;0.00;0.00;;;;;;;;;;5032711;28;20451;-87
2023/04/03 14:05:23;;;;;;;0.00;0.00;;;;;;;;;;5016314;28;20080;-88
2023/04/03 14:07:49;;;;;;;0.00;0.00;;;;;;;;;;5016224;28;20041;-88
2023/04/03 14:10:15;;;;;;;0.00;0.00;;;;;;;;;;5032914;28;20037;-87
2023/04/03 14:12:41;;;;;;;0.00;0.00;;;;;;;;;;5032509;28;20108;-88
2023/04/03 14:15:16;;;;;;;0.00;0.00;;;;;;;;;;5032886;28;20558;-88
2023/04/03 14:17:42;;;;;;;0.00;0.00;;;;;;;;;;5032474;28;20037;-87
2023/04/03 14:20:14;;;;;;;0.00;0.00;;;;;;;;;;5031693;28;20120;-87
2023/04/03 14:22:40;;;;;;;0.00;0.00;;;;;;;;;;5032374;28;20044;-87
2023/04/03 14:25:06;;;;;;;0.00;0.00;;;;;;;;;;5032823;28;20045;-88
2023/04/03 14:27:40;;;;;;;0.00;0.00;;;;;;;;;;5032347;28;20109;-87
2023/04/03 14:30:08;;;;;;;0.00;0.00;;;;;;;;;;5032511;28;20499;-88
2023/04/03 14:32:34;;;;;;;0.00;0.00;;;;;;;;;;5032413;28;20393;-88
2023/04/03 14:35:01;;;;;;;0.00;0.00;;;;;;;;;;5032496;28;20045;-87
2023/04/03 14:37:28;;;;;;;0.00;0.00;;;;;;;;;;5032506;28;20060;-87
2023/04/03 14:39:57;;;;;;;0.00;0.00;;;;;;;;;;5015799;28;20073;-87
2023/04/03 14:42:31;;;;;;;0.00;0.00;;;;;;;;;;5032165;28;20033;-88
2023/04/03 14:44:57;;;;;;;0.00;0.00;;;;;;;;;;5032360;28;20124;-87
2023/04/03 14:47:27;;;;;;;0.00;0.00;;;;;;;;;;5016181;28;20099;-93
2023/04/03 14:49:53;;;;;;;0.00;0.00;;;;;;;;;;5016720;28;20377;-88
2023/04/03 14:52:21;;;;;;;0.00;0.00;;;;;;;;;;5032408;28;20107;-87